Time;durP1;ratioP1;P1;durP2;ratioP2;P2;SDS_P1;SDS_P2;PMS_P1;PMS_P2;Temp;Humidity;BMP_temperature;BMP_pressure;BME280_temperature;BME280_humidity;BME280_pressure;Samples;Min_cycle;Max_cycle;Signal;HPM_P1;HPM_P2
2021/06/27 00:00:14;;;;;;;11.77;4.20;;;17.40;99.90;;;;;;5052559;28;20082;-75
2021/06/27 00:02:40;;;;;;;6.93;4.45;;;17.30;99.90;;;;;;5052579;28;20072;-75
2021/06/27 00:05:09;;;;;;;28.42;5.57;;;17.50;99.90;;;;;;5052368;28;20366;-75
2021/06/27 00:07:35;;;;;;;63.38;6.32;;;17.30;99.90;;;;;;5052729;28;20041;-75
2021/06/27 00:10:03;;;;;;;23.95;4.70;;;17.30;99.90;;;;;;5052600;28;20028;-75
2021/06/27 00:12:29;;;;;;;47.30;5.68;;;17.20;99.90;;;;;;5052733;28;20032;-75
2021/06/27 00:14:54;;;;;;;17.63;6.43;;;17.30;99.90;;;;;;5052366;28;20037;-75
2021/06/27 00:17:20;;;;;;;24.17;5.40;;;17.20;99.90;;;;;;5052653;28;20036;-75
2021/06/27 00:19:46;;;;;;;6.13;4.10;;;17.10;99.90;;;;;;5052173;28;20052;-75
2021/06/27 00:22:12;;;;;;;9.25;5.15;;;17.10;99.90;;;;;;5052392;28;20095;-75
2021/06/27 00:24:38;;;;;;;18.48;5.28;;;17.10;99.90;;;;;;5052315;28;20041;-75
2021/06/27 00:27:04;;;;;;;5.90;3.20;;;17.10;99.90;;;;;;5052499;28;20025;-75
2021/06/27 00:29:29;;;;;;;3.97;3.20;;;16.80;99.90;;;;;;5052414;28;20036;-75
2021/06/27 00:31:55;;;;;;;4.10;3.70;;;16.90;99.90;;;;;;5052088;28;20380;-75
2021/06/27 00:34:21;;;;;;;19.05;4.88;;;16.90;99.90;;;;;;5052322;28;20132;-75
2021/06/27 00:36:46;;;;;;;9.88;4.38;;;17.00;99.90;;;;;;5052177;28;20440;-75
2021/06/27 00:39:12;;;;;;;15.05;4.65;;;16.90;99.90;;;;;;5052316;28;20374;-75
2021/06/27 00:41:38;;;;;;;17.70;4.63;;;16.90;99.90;;;;;;5052429;28;20484;-75
2021/06/27 00:44:04;;;;;;;8.02;4.72;;;17.10;99.90;;;;;;5052028;28;20397;-75
2021/06/27 00:46:30;;;;;;;6.60;4.55;;;17.30;99.90;;;;;;5052416;28;20025;-75
2021/06/27 00:48:56;;;;;;;6.38;4.57;;;17.30;99.90;;;;;;5051967;28;20048;-75
2021/06/27 00:51:22;;;;;;;5.65;4.20;;;17.50;99.90;;;;;;5052281;28;20029;-75
2021/06/27 00:53:49;;;;;;;10.65;5.03;;;17.60;99.90;;;;;;5052114;28;20484;-75
2021/06/27 00:56:16;;;;;;;4.78;3.83;;;17.50;99.90;;;;;;5052612;28;20049;-75
2021/06/27 00:58:43;;;;;;;3.70;3.40;;;17.20;99.90;;;;;;5056168;28;20029;-75
2021/06/27 01:01:10;;;;;;;5.18;4.00;;;17.50;99.90;;;;;;5055909;28;20029;-75
2021/06/27 01:03:36;;;;;;;4.22;3.92;;;17.60;99.90;;;;;;5055700;28;20040;-75
2021/06/27 01:06:03;;;;;;;5.85;4.47;;;17.80;99.90;;;;;;5055766;28;20021;-75
2021/06/27 01:08:29;;;;;;;10.23;4.85;;;17.70;99.90;;;;;;5055831;28;20481;-75
2021/06/27 01:10:55;;;;;;;10.73;4.65;;;17.60;99.90;;;;;;5056119;28;20020;-75
2021/06/27 01:13:22;;;;;;;5.60;4.72;;;17.60;99.90;;;;;;5055566;28;20074;-75
2021/06/27 01:15:50;;;;;;;7.28;5.28;;;17.40;99.90;;;;;;5055844;28;20057;-75
2021/06/27 01:18:16;;;;;;;9.55;4.18;;;17.50;99.90;;;;;;5055161;28;20023;-75
2021/06/27 01:20:42;;;;;;;6.22;4.47;;;17.50;99.90;;;;;;5055619;28;20017;-75
2021/06/27 01:23:14;;;;;;;6.80;4.93;;;17.30;99.90;;;;;;5055477;28;20543;-75
2021/06/27 01:25:43;;;;;;;7.85;4.65;;;17.20;99.90;;;;;;5055453;28;20119;-75
2021/06/27 01:28:10;;;;;;;4.53;4.10;;;17.30;99.90;;;;;;5055472;28;20112;-75
2021/06/27 01:30:36;;;;;;;8.43;3.92;;;17.40;99.90;;;;;;5055461;28;20100;-75
2021/06/27 01:33:13;;;;;;;7.28;3.75;;;17.40;99.90;;;;;;5055017;28;20051;-75
2021/06/27 01:35:40;;;;;;;5.47;3.50;;;17.50;99.90;;;;;;5054064;28;20057;-75
2021/06/27 01:38:06;;;;;;;4.28;3.97;;;17.50;99.90;;;;;;5054995;28;20025;-75
2021/06/27 01:40:33;;;;;;;4.80;3.83;;;17.40;99.90;;;;;;5053869;28;20111;-75
2021/06/27 01:43:17;;;;;;;3.78;3.40;;;17.30;99.90;;;;;;5055185;28;20035;-75
2021/06/27 01:45:59;;;;;;;4.90;3.85;;;17.50;99.90;;;;;;5055062;28;20021;-75
2021/06/27 01:48:25;;;;;;;3.78;3.47;;;17.60;99.90;;;;;;5055327;28;20033;-75
2021/06/27 01:50:54;;;;;;;4.88;3.63;;;17.50;99.90;;;;;;5054944;28;20021;-75
2021/06/27 01:53:23;;;;;;;4.47;3.80;;;17.60;99.90;;;;;;5055055;28;20496;-75
2021/06/27 01:56:04;;;;;;;5.20;3.90;;;17.50;99.90;;;;;;5055050;28;20108;-75
2021/06/27 01:58:34;;;;;;;6.18;4.10;;;17.40;99.90;;;;;;5055202;28;20543;-75
2021/06/27 02:01:00;;;;;;;7.90;4.28;;;17.50;99.90;;;;;;5054776;28;20013;-75
2021/06/27 02:03:25;;;;;;;3.35;3.15;;;17.70;99.90;;;;;;5054712;28;20442;-75
2021/06/27 02:05:51;;;;;;;5.93;3.67;;;17.60;99.90;;;;;;5054788;28;20018;-75
2021/06/27 02:08:17;;;;;;;5.75;3.60;;;17.70;99.90;;;;;;5054543;28;20029;-75
2021/06/27 02:10:43;;;;;;;3.75;3.38;;;17.70;99.90;;;;;;5053411;28;20078;-75
2021/06/27 02:13:09;;;;;;;4.10;3.72;;;17.70;99.90;;;;;;5053170;28;20074;-75
2021/06/27 02:15:35;;;;;;;3.60;3.30;;;17.80;99.90;;;;;;5054365;28;20427;-75
2021/06/27 02:18:27;;;;;;;6.95;3.35;;;17.80;99.90;;;;;;5054532;28;20111;-75
2021/06/27 02:20:55;;;;;;;4.38;3.92;;;17.80;99.90;;;;;;5054485;28;20137;-75
2021/06/27 02:23:21;;;;;;;5.15;3.55;;;17.70;99.90;;;;;;5054468;28;20066;-75
2021/06/27 02:25:47;;;;;;;4.78;3.63;;;17.70;99.90;;;;;;5054414;28;20033;-75
2021/06/27 02:28:12;;;;;;;3.35;3.10;;;17.70;99.90;;;;;;5052922;28;20484;-75
2021/06/27 02:30:38;;;;;;;6.15;3.50;;;17.60;99.90;;;;;;5054117;28;20503;-75
2021/06/27 02:33:05;;;;;;;4.50;2.80;;;17.60;99.90;;;;;;5040895;28;20093;-75
2021/06/27 02:35:32;;;;;;;5.05;3.13;;;17.60;99.90;;;;;;5034275;28;20107;-75
2021/06/27 02:37:57;;;;;;;3.85;3.53;;;17.60;99.90;;;;;;5034511;28;20030;-75
2021/06/27 02:40:23;;;;;;;4.45;3.20;;;17.60;99.90;;;;;;5034201;28;20034;-75
2021/06/27 02:42:49;;;;;;;3.92;3.53;;;17.60;99.90;;;;;;5033979;28;20111;-75
2021/06/27 02:45:15;;;;;;;3.90;3.60;;;17.70;99.90;;;;;;5033823;28;20029;-75
2021/06/27 02:47:42;;;;;;;4.57;3.25;;;17.80;99.90;;;;;;5034234;28;20026;-75
2021/06/27 02:50:10;;;;;;;5.22;4.07;;;17.80;99.90;;;;;;5032486;28;20575;-75
2021/06/27 02:52:37;;;;;;;4.35;3.95;;;17.60;99.90;;;;;;5032664;28;20025;-75
2021/06/27 02:55:04;;;;;;;4.03;3.60;;;17.60;99.90;;;;;;5032633;28;20112;-75
2021/06/27 02:57:30;;;;;;;5.40;3.55;;;17.50;99.90;;;;;;5033892;28;20436;-75
2021/06/27 02:59:56;;;;;;;5.20;4.70;;;17.50;99.90;;;;;;5033643;28;20087;-75
2021/06/27 03:02:21;;;;;;;5.25;4.35;;;17.60;99.90;;;;;;5033711;28;20474;-75
2021/06/27 03:04:47;;;;;;;5.15;4.60;;;17.60;99.90;;;;;;5033820;28;20473;-75
2021/06/27 03:07:13;;;;;;;6.25;4.90;;;17.60;99.90;;;;;;5032460;28;20017;-75
2021/06/27 03:09:38;;;;;;;5.57;5.07;;;17.60;99.90;;;;;;5033615;28;20025;-75
2021/06/27 03:12:05;;;;;;;5.28;4.55;;;17.80;99.90;;;;;;5033528;28;20429;-75
2021/06/27 03:14:30;;;;;;;6.65;4.47;;;17.80;99.90;;;;;;5033275;28;20025;-75
2021/06/27 03:16:56;;;;;;;7.32;4.70;;;17.80;99.90;;;;;;5033418;28;20375;-75
2021/06/27 03:19:22;;;;;;;5.28;4.88;;;17.70;99.90;;;;;;5032573;28;20494;-75
2021/06/27 03:21:48;;;;;;;7.50;5.05;;;17.60;99.90;;;;;;5033587;28;20037;-75
2021/06/27 03:24:14;;;;;;;5.45;4.95;;;17.80;99.90;;;;;;5033135;28;20022;-75
2021/06/27 03:26:40;;;;;;;5.20;4.70;;;18.00;99.90;;;;;;5033281;28;20082;-75
2021/06/27 03:29:06;;;;;;;5.47;5.03;;;18.00;99.90;;;;;;5032836;28;20067;-75
2021/06/27 03:31:32;;;;;;;5.45;4.43;;;17.90;99.90;;;;;;5033757;28;20018;-75
2021/06/27 03:33:58;;;;;;;5.32;4.88;;;17.80;99.90;;;;;;5053276;28;20037;-75
2021/06/27 03:36:24;;;;;;;5.53;5.05;;;17.80;99.90;;;;;;5052989;28;20105;-75
2021/06/27 03:39:23;;;;;;;10.77;5.05;;;17.80;99.90;;;;;;5052937;28;20037;-75
2021/06/27 03:42:03;;;;;;;6.65;4.60;;;17.70;99.90;;;;;;5051540;28;20137;-75
2021/06/27 03:44:29;;;;;;;5.78;5.25;;;17.80;99.90;;;;;;5052594;28;20051;-75
2021/06/27 03:46:56;;;;;;;5.88;4.50;;;17.80;99.90;;;;;;5052975;28;20021;-75
2021/06/27 03:49:22;;;;;;;5.97;5.00;;;17.80;99.90;;;;;;5052665;28;20029;-75
2021/06/27 03:51:48;;;;;;;7.55;5.72;;;17.70;99.90;;;;;;5052924;28;20025;-76
2021/06/27 03:54:15;;;;;;;6.00;5.22;;;17.70;99.90;;;;;;5052747;28;20041;-75
2021/06/27 03:56:41;;;;;;;6.63;5.57;;;17.80;99.90;;;;;;5052480;28;20020;-75
2021/06/27 03:59:07;;;;;;;6.82;6.00;;;17.80;99.90;;;;;;5052731;28;20104;-75
2021/06/27 04:01:33;;;;;;;6.75;5.93;;;17.80;99.90;;;;;;5052699;28;20104;-75
2021/06/27 04:04:00;;;;;;;8.25;7.45;;;17.90;99.90;;;;;;5052507;28;20029;-75
2021/06/27 04:06:26;;;;;;;7.47;6.40;;;17.80;99.90;;;;;;5052732;28;20014;-75
2021/06/27 04:08:52;;;;;;;11.90;9.20;;;17.80;99.90;;;;;;5052568;28;20025;-75
2021/06/27 04:11:18;;;;;;;11.57;10.38;;;17.70;99.90;;;;;;5052347;28;20033;-75
2021/06/27 04:13:44;;;;;;;12.23;11.00;;;17.60;99.90;;;;;;5052639;28;20488;-75
2021/06/27 04:16:10;;;;;;;15.98;10.90;;;17.60;99.90;;;;;;5052608;28;20029;-75
2021/06/27 04:18:37;;;;;;;11.52;10.27;;;17.60;99.90;;;;;;5052107;28;20041;-75
2021/06/27 04:21:04;;;;;;;11.40;10.05;;;17.50;99.90;;;;;;5052612;28;20036;-75
2021/06/27 04:23:32;;;;;;;13.88;10.98;;;17.50;99.90;;;;;;5052209;28;20555;-75
2021/06/27 04:25:58;;;;;;;12.32;9.18;;;17.40;99.90;;;;;;5052181;28;20036;-75
2021/06/27 04:28:23;;;;;;;9.23;8.32;;;17.50;99.90;;;;;;5052426;28;20025;-75
2021/06/27 04:30:49;;;;;;;8.93;7.50;;;17.50;99.90;;;;;;5052358;28;20393;-75
2021/06/27 04:33:15;;;;;;;9.70;6.95;;;17.50;99.90;;;;;;5056191;28;20401;-75
2021/06/27 04:35:41;;;;;;;6.50;5.68;;;17.50;99.90;;;;;;5056364;28;20021;-75
2021/06/27 04:38:10;;;;;;;7.55;6.78;;;17.60;99.90;;;;;;5056551;28;20445;-75
2021/06/27 04:40:36;;;;;;;6.97;5.47;;;17.60;99.90;;;;;;5056066;28;20497;-75
2021/06/27 04:43:04;;;;;;;6.30;5.80;;;17.70;99.90;;;;;;5055239;28;20048;-75
2021/06/27 04:45:30;;;;;;;6.18;5.55;;;17.70;99.90;;;;;;5056118;28;20025;-75
2021/06/27 04:47:57;;;;;;;6.82;4.95;;;17.80;99.90;;;;;;5056325;28;20028;-75
2021/06/27 04:50:23;;;;;;;7.65;4.75;;;17.70;99.90;;;;;;5056111;28;20017;-75
2021/06/27 04:52:52;;;;;;;8.05;5.85;;;17.60;99.90;;;;;;5056303;28;20037;-75
2021/06/27 04:55:21;;;;;;;7.25;5.78;;;17.50;99.90;;;;;;5055584;28;20025;-75
2021/06/27 04:57:47;;;;;;;5.80;4.93;;;17.50;99.90;;;;;;5056234;28;20029;-75
2021/06/27 05:00:14;;;;;;;6.60;4.75;;;17.50;99.90;;;;;;5056047;28;20443;-75
2021/06/27 05:02:40;;;;;;;6.85;4.75;;;17.50;99.90;;;;;;5054618;28;20119;-75
2021/06/27 05:05:07;;;;;;;5.93;4.95;;;17.50;99.90;;;;;;5056010;28;20108;-75
2021/06/27 05:07:33;;;;;;;5.07;4.60;;;17.50;99.90;;;;;;5055808;28;20021;-75
2021/06/27 05:09:58;;;;;;;8.80;4.65;;;17.50;99.90;;;;;;5055606;28;20036;-75
2021/06/27 05:12:25;;;;;;;5.00;4.60;;;17.40;99.90;;;;;;5055798;28;20025;-75
2021/06/27 05:14:52;;;;;;;6.15;4.38;;;17.30;99.90;;;;;;5055732;28;20032;-75
2021/06/27 05:17:18;;;;;;;4.72;4.28;;;17.40;99.90;;;;;;5055785;28;20021;-75
2021/06/27 05:19:44;;;;;;;5.07;3.85;;;17.50;99.90;;;;;;5054133;28;20138;-75
2021/06/27 05:22:09;;;;;;;5.60;4.35;;;17.60;99.90;;;;;;5055769;28;20045;-75
2021/06/27 05:24:35;;;;;;;5.03;4.25;;;17.60;99.90;;;;;;5053793;28;20065;-75
2021/06/27 05:27:01;;;;;;;5.60;4.55;;;17.70;99.90;;;;;;5055693;28;20028;-75
2021/06/27 05:29:27;;;;;;;5.25;4.40;;;17.70;99.90;;;;;;5055473;28;20075;-76
2021/06/27 05:31:52;;;;;;;5.15;4.50;;;17.70;99.90;;;;;;5055084;28;20036;-76
2021/06/27 05:34:18;;;;;;;5.60;4.28;;;17.80;99.90;;;;;;5055550;28;20043;-76
2021/06/27 05:36:44;;;;;;;6.50;5.00;;;17.70;99.90;;;;;;5055044;28;20025;-76
2021/06/27 05:39:12;;;;;;;4.78;4.32;;;17.60;99.90;;;;;;5055062;28;20029;-75
2021/06/27 05:41:39;;;;;;;5.28;4.78;;;17.60;99.90;;;;;;5055192;28;20385;-75
2021/06/27 05:44:07;;;;;;;3.70;3.38;;;17.70;99.90;;;;;;5054787;28;20486;-75
2021/06/27 05:46:33;;;;;;;5.95;4.03;;;17.90;99.90;;;;;;5055131;28;20468;-75
2021/06/27 05:49:00;;;;;;;5.25;4.78;;;18.00;99.90;;;;;;5055146;28;20479;-75
2021/06/27 05:51:25;;;;;;;4.82;4.43;;;18.10;99.90;;;;;;5055040;28;20054;-76
2021/06/27 05:53:54;;;;;;;5.78;4.75;;;18.20;99.90;;;;;;5053646;28;20061;-75
2021/06/27 05:56:20;;;;;;;4.13;3.72;;;18.10;99.90;;;;;;5055169;28;20112;-75
2021/06/27 05:58:47;;;;;;;4.13;3.80;;;18.10;99.90;;;;;;5054914;28;20104;-76
2021/06/27 06:01:18;;;;;;;7.35;4.18;;;18.10;99.90;;;;;;5054823;28;20025;-76
2021/06/27 06:03:44;;;;;;;8.15;4.18;;;18.00;99.90;;;;;;5054828;28;20366;-76
2021/06/27 06:06:11;;;;;;;4.78;3.97;;;18.00;99.90;;;;;;5054665;28;20354;-75
2021/06/27 06:08:42;;;;;;;5.10;4.57;;;18.00;99.90;;;;;;5054347;28;20025;-75
2021/06/27 06:11:13;;;;;;;5.82;4.95;;;18.30;99.90;;;;;;5051625;28;20028;-76
2021/06/27 06:13:40;;;;;;;4.63;4.22;;;18.50;99.90;;;;;;5045155;28;20476;-76
2021/06/27 06:16:07;;;;;;;7.50;4.43;;;18.70;99.90;;;;;;5050391;28;20021;-76
2021/06/27 06:18:34;;;;;;;5.38;4.65;;;18.70;99.90;;;;;;5046704;28;20057;-76
2021/06/27 06:21:00;;;;;;;4.95;4.30;;;18.70;99.90;;;;;;5049339;28;20389;-76
2021/06/27 06:23:26;;;;;;;7.38;4.10;;;18.90;99.90;;;;;;5060241;28;20519;-76
2021/06/27 06:25:53;;;;;;;5.72;4.25;;;18.90;99.90;;;;;;5059076;28;20102;-75
2021/06/27 06:28:19;;;;;;;4.75;4.35;;;19.00;99.90;;;;;;5065951;28;20029;-75
2021/06/27 06:30:45;;;;;;;5.45;5.00;;;18.90;99.90;;;;;;5061384;28;20170;-76
2021/06/27 06:33:11;;;;;;;6.43;4.82;;;18.90;99.90;;;;;;5056629;28;20104;-76
2021/06/27 06:35:38;;;;;;;4.63;4.32;;;19.00;99.90;;;;;;5065548;28;20166;-75
2021/06/27 06:38:04;;;;;;;4.53;4.13;;;19.10;99.90;;;;;;5072470;28;20024;-76
2021/06/27 06:40:31;;;;;;;5.60;4.63;;;19.20;99.90;;;;;;5058101;28;20031;-75
2021/06/27 06:42:56;;;;;;;4.75;4.35;;;19.20;99.90;;;;;;5053613;28;20036;-75
2021/06/27 06:45:22;;;;;;;4.68;4.28;;;19.10;99.90;;;;;;5065449;28;20021;-76
2021/06/27 06:47:48;;;;;;;4.40;3.97;;;19.30;99.90;;;;;;5053200;28;20146;-76
2021/06/27 06:50:14;;;;;;;4.63;4.18;;;19.40;99.90;;;;;;5057162;28;20028;-75
2021/06/27 06:52:39;;;;;;;6.72;4.32;;;19.40;99.90;;;;;;5053451;28;20017;-76
2021/06/27 06:55:06;;;;;;;5.43;4.80;;;19.50;99.90;;;;;;5055185;28;20025;-75
2021/06/27 06:57:31;;;;;;;5.55;4.85;;;19.60;99.90;;;;;;5062108;28;20107;-75
2021/06/27 06:59:57;;;;;;;4.82;4.32;;;19.70;99.90;;;;;;5033575;28;20490;-75
2021/06/27 07:02:23;;;;;;;4.70;4.30;;;19.70;99.90;;;;;;5033872;28;20477;-75
2021/06/27 07:04:49;;;;;;;7.60;4.60;;;19.80;99.90;;;;;;5033287;28;20032;-76
2021/06/27 07:07:15;;;;;;;5.60;5.10;;;19.80;99.90;;;;;;5057589;28;20016;-76
2021/06/27 07:09:40;;;;;;;4.93;4.50;;;19.70;99.90;;;;;;5055468;28;20492;-75
2021/06/27 07:12:07;;;;;;;5.30;4.80;;;19.80;99.90;;;;;;5053636;28;20056;-76
2021/06/27 07:14:32;;;;;;;5.70;4.60;;;20.00;99.90;;;;;;5042966;28;20078;-75
2021/06/27 07:16:58;;;;;;;5.68;4.78;;;19.90;99.90;;;;;;5051731;28;20021;-76
2021/06/27 07:19:24;;;;;;;7.15;4.30;;;19.90;99.90;;;;;;5056742;28;20052;-75
2021/06/27 07:21:50;;;;;;;6.18;4.22;;;19.90;99.90;;;;;;5051992;28;20025;-75
2021/06/27 07:24:16;;;;;;;4.85;4.45;;;19.80;99.90;;;;;;5065982;28;21642;-76
2021/06/27 07:26:43;;;;;;;5.22;4.53;;;19.70;99.90;;;;;;5052028;28;20104;-76
2021/06/27 07:29:09;;;;;;;5.13;4.63;;;19.60;99.90;;;;;;5033309;28;20025;-76
2021/06/27 07:31:35;;;;;;;6.72;4.88;;;19.40;99.90;;;;;;5035919;28;20026;-76
2021/06/27 07:34:00;;;;;;;6.18;4.72;;;19.30;99.90;;;;;;5054724;28;20048;-76
2021/06/27 07:36:26;;;;;;;5.40;4.90;;;19.30;99.90;;;;;;5072857;28;20033;-76
2021/06/27 07:38:52;;;;;;;14.30;5.20;;;19.40;99.90;;;;;;5057328;28;20098;-76
2021/06/27 07:41:18;;;;;;;5.85;5.22;;;19.40;99.90;;;;;;5051188;28;20033;-76
2021/06/27 07:43:45;;;;;;;6.70;5.07;;;19.40;99.90;;;;;;5052418;28;20033;-76
2021/06/27 07:46:11;;;;;;;5.32;4.90;;;19.60;99.90;;;;;;5052183;28;20112;-77
2021/06/27 07:48:37;;;;;;;4.68;4.38;;;19.40;99.90;;;;;;5038050;28;20455;-76
2021/06/27 07:51:03;;;;;;;10.32;4.90;;;19.40;99.90;;;;;;5046370;28;20027;-76
2021/06/27 07:53:29;;;;;;;4.80;4.38;;;19.70;99.90;;;;;;5052831;28;20025;-76
2021/06/27 07:55:55;;;;;;;4.68;4.28;;;19.80;99.90;;;;;;5045020;28;20076;-76
2021/06/27 07:58:20;;;;;;;4.82;4.32;;;19.70;99.90;;;;;;5032879;28;20034;-76
2021/06/27 08:00:46;;;;;;;5.55;5.05;;;19.90;99.90;;;;;;5035704;28;20117;-76
2021/06/27 08:03:12;;;;;;;5.68;5.18;;;20.30;99.90;;;;;;5032389;28;20048;-76
2021/06/27 08:05:38;;;;;;;5.15;4.43;;;20.60;99.90;;;;;;5043784;28;20072;-76
2021/06/27 08:08:04;;;;;;;9.27;4.60;;;21.00;99.90;;;;;;5052377;28;20436;-76
2021/06/27 08:10:30;;;;;;;6.50;5.22;;;21.30;99.90;;;;;;5052650;28;20025;-76
2021/06/27 08:12:56;;;;;;;5.18;4.68;;;21.50;99.90;;;;;;5034627;28;20424;-76
2021/06/27 08:15:21;;;;;;;5.10;4.70;;;21.80;99.90;;;;;;5037239;28;20049;-76
2021/06/27 08:17:51;;;;;;;4.70;4.30;;;22.00;99.90;;;;;;5048474;28;20036;-76
2021/06/27 08:20:19;;;;;;;6.03;4.65;;;21.90;99.90;;;;;;5043296;28;20041;-76
2021/06/27 08:22:45;;;;;;;5.22;4.72;;;22.00;99.90;;;;;;5041037;28;20129;-77
2021/06/27 08:25:11;;;;;;;5.30;4.80;;;22.10;99.90;;;;;;5063955;28;20025;-76
2021/06/27 08:27:38;;;;;;;6.68;5.05;;;22.00;99.90;;;;;;5051466;28;20025;-77
2021/06/27 08:30:08;;;;;;;11.00;8.23;;;22.00;99.90;;;;;;5051664;28;20566;-77
2021/06/27 08:32:35;;;;;;;6.57;5.15;;;22.20;99.90;;;;;;5051618;28;20021;-78
2021/06/27 08:35:01;;;;;;;5.38;4.95;;;22.10;99.90;;;;;;5063554;28;20037;-76
2021/06/27 08:37:27;;;;;;;5.25;4.82;;;22.10;99.90;;;;;;5068172;28;20036;-78
2021/06/27 08:39:53;;;;;;;7.72;5.63;;;22.10;99.90;;;;;;5046584;28;20104;-77
2021/06/27 08:42:20;;;;;;;8.65;5.25;;;22.00;99.90;;;;;;5051433;28;20119;-77
2021/06/27 08:44:49;;;;;;;7.75;7.00;;;22.50;99.90;;;;;;5051919;28;20496;-76
2021/06/27 08:47:16;;;;;;;12.40;8.85;;;22.60;99.90;;;;;;5053984;28;20477;-76
2021/06/27 08:49:46;;;;;;;9.75;8.75;;;22.20;99.90;;;;;;5061143;28;20090;-76
2021/06/27 08:52:23;;;;;;;8.93;8.02;;;22.00;99.90;;;;;;5045430;28;20041;-76
2021/06/27 08:54:52;;;;;;;10.20;8.30;;;21.90;99.90;;;;;;5045971;28;20044;-76
2021/06/27 08:57:19;;;;;;;9.77;8.85;;;21.80;99.90;;;;;;5042365;28;20052;-76
2021/06/27 08:59:45;;;;;;;10.45;9.45;;;21.60;99.90;;;;;;5039107;28;20033;-76
2021/06/27 09:02:12;;;;;;;10.90;9.75;;;21.20;99.90;;;;;;5042354;28;20035;-76
2021/06/27 09:04:39;;;;;;;12.10;10.90;;;20.90;99.90;;;;;;5039009;28;20482;-76
2021/06/27 09:07:28;;;;;;;12.90;11.70;;;20.80;99.90;;;;;;5042484;28;20551;-76
2021/06/27 09:09:58;;;;;;;13.20;11.80;;;20.70;99.90;;;;;;5039826;28;20091;-76
2021/06/27 09:12:24;;;;;;;14.85;12.38;;;20.50;99.90;;;;;;5033076;28;20492;-76
2021/06/27 09:14:54;;;;;;;12.82;11.55;;;20.50;99.90;;;;;;5035863;28;20053;-76
2021/06/27 09:17:23;;;;;;;13.60;12.07;;;20.40;99.90;;;;;;5031819;28;20124;-76
2021/06/27 09:19:52;;;;;;;16.77;12.90;;;20.20;99.90;;;;;;5035477;28;20037;-77
2021/06/27 09:22:32;;;;;;;13.55;12.15;;;20.10;99.90;;;;;;5039637;28;20111;-76
2021/06/27 09:25:19;;;;;;;14.30;12.85;;;19.70;99.90;;;;;;5045280;28;20439;-76
2021/06/27 09:27:56;;;;;;;15.60;14.00;;;19.50;99.90;;;;;;5035867;28;20040;-76
2021/06/27 09:30:22;;;;;;;14.13;12.63;;;19.60;99.90;;;;;;5036891;28;20029;-75
2021/06/27 09:32:56;;;;;;;15.35;12.27;;;19.70;99.90;;;;;;5046393;28;20029;-75
2021/06/27 09:35:41;;;;;;;14.80;12.82;;;19.90;99.90;;;;;;5055218;28;20021;-75
2021/06/27 09:38:24;;;;;;;13.98;12.57;;;19.60;99.90;;;;;;5055243;28;20033;-75
2021/06/27 09:40:55;;;;;;;14.43;11.85;;;19.60;99.90;;;;;;5055252;28;20025;-75
2021/06/27 09:43:22;;;;;;;14.00;12.65;;;19.70;99.90;;;;;;5054995;28;20040;-75
2021/06/27 09:45:57;;;;;;;13.73;12.38;;;19.70;99.90;;;;;;5053510;28;20447;-75
2021/06/27 09:48:27;;;;;;;12.93;11.63;;;19.80;99.90;;;;;;5053571;28;20025;-75
2021/06/27 09:50:53;;;;;;;12.90;11.38;;;19.60;99.90;;;;;;5055036;28;20025;-75
2021/06/27 09:53:34;;;;;;;14.38;11.73;;;19.60;99.90;;;;;;5044418;28;20030;-75
2021/06/27 09:56:01;;;;;;;14.75;10.82;;;19.60;99.90;;;;;;5034827;28;20017;-75
2021/06/27 09:58:27;;;;;;;12.23;10.98;;;19.60;99.90;;;;;;5034590;28;20036;-75
2021/06/27 10:00:53;;;;;;;11.90;10.73;;;19.50;99.90;;;;;;5042596;28;20033;-75
2021/06/27 10:03:19;;;;;;;11.90;10.23;;;19.70;99.90;;;;;;5054664;28;20082;-75
2021/06/27 10:05:45;;;;;;;13.68;11.38;;;19.60;99.90;;;;;;5043072;28;20029;-75
2021/06/27 10:08:30;;;;;;;14.20;10.50;;;19.60;99.90;;;;;;5033309;28;20303;-76
2021/06/27 10:11:14;;;;;;;13.20;10.93;;;19.70;99.90;;;;;;5034853;28;20084;-75
2021/06/27 10:13:41;;;;;;;15.98;11.25;;;19.80;99.90;;;;;;5034277;28;20022;-75
2021/06/27 10:16:07;;;;;;;13.65;10.63;;;19.70;99.90;;;;;;5034667;28;20021;-75
2021/06/27 10:18:34;;;;;;;16.75;10.60;;;19.80;99.90;;;;;;5034305;28;20478;-75
2021/06/27 10:21:00;;;;;;;10.50;8.93;;;19.70;99.90;;;;;;5034565;28;20026;-75
2021/06/27 10:23:26;;;;;;;11.57;9.23;;;19.80;99.90;;;;;;5034473;28;20072;-75
2021/06/27 10:25:54;;;;;;;9.10;8.20;;;19.60;99.90;;;;;;5034434;28;20103;-75
2021/06/27 10:28:20;;;;;;;9.07;8.18;;;19.60;99.90;;;;;;5032731;28;20030;-75
2021/06/27 10:30:46;;;;;;;10.70;8.20;;;19.60;99.90;;;;;;5034299;28;20017;-75
2021/06/27 10:33:12;;;;;;;8.82;8.07;;;19.60;99.90;;;;;;5044787;28;20451;-75
2021/06/27 10:35:39;;;;;;;8.18;7.38;;;19.40;99.90;;;;;;5054173;28;20036;-75
2021/06/27 10:38:07;;;;;;;7.75;7.05;;;19.30;99.90;;;;;;5054016;28;20017;-75
2021/06/27 10:40:52;;;;;;;8.65;7.60;;;19.10;99.90;;;;;;5053986;28;20021;-75
2021/06/27 10:43:19;;;;;;;8.30;6.70;;;19.30;99.90;;;;;;5053929;28;20060;-75
2021/06/27 10:45:47;;;;;;;9.57;7.18;;;19.30;99.90;;;;;;5053911;28;20032;-75
2021/06/27 10:48:45;;;;;;;6.65;5.63;;;19.20;99.90;;;;;;5053855;28;20029;-75
2021/06/27 10:51:13;;;;;;;5.55;5.05;;;19.30;99.90;;;;;;5031721;28;20120;-75
2021/06/27 10:54:09;;;;;;;4.65;4.25;;;19.30;99.90;;;;;;5031604;28;20038;-75
2021/06/27 10:56:59;;;;;;;3.60;3.30;;;19.00;99.90;;;;;;5031136;28;20043;-75
2021/06/27 10:59:50;;;;;;;4.75;4.13;;;18.90;99.90;;;;;;5031667;28;20033;-75
2021/06/27 11:02:17;;;;;;;4.22;3.85;;;19.00;99.90;;;;;;5031513;28;20112;-75
2021/06/27 11:04:44;;;;;;;5.38;3.75;;;18.90;99.90;;;;;;5031433;28;20441;-75
2021/06/27 11:07:31;;;;;;;4.63;4.07;;;18.80;99.90;;;;;;5014891;28;20120;-75
2021/06/27 11:10:18;;;;;;;4.07;3.67;;;18.60;99.90;;;;;;5014882;28;20127;-75
2021/06/27 11:15:22;;;;;;;4.13;3.83;;;18.90;99.90;;;;;;5031374;28;20030;-75
2021/06/27 11:17:52;;;;;;;4.72;4.40;;;18.90;99.90;;;;;;5031401;28;20338;-75
2021/06/27 11:20:18;;;;;;;;;;;18.90;99.90;;;;;;5031376;28;20139;-75
2021/06/27 11:22:49;;;;;;;3.50;3.20;;;19.00;99.90;;;;;;5031230;28;20336;-75
2021/06/27 11:25:39;;;;;;;4.10;3.80;;;18.80;99.90;;;;;;5031241;28;20108;-76
2021/06/27 11:28:20;;;;;;;3.25;2.97;;;18.80;99.90;;;;;;5053255;28;20032;-75
2021/06/27 11:30:53;;;;;;;2.67;2.47;;;19.10;99.90;;;;;;5052941;28;20045;-75
2021/06/27 11:33:24;;;;;;;2.85;2.65;;;19.10;99.90;;;;;;5052845;28;20484;-75
2021/06/27 11:35:57;;;;;;;3.00;2.67;;;19.40;99.90;;;;;;5051733;28;20037;-75
2021/06/27 11:38:39;;;;;;;4.00;2.95;;;19.40;99.90;;;;;;5053052;28;20490;-75
2021/06/27 11:41:18;;;;;;;2.83;2.58;;;19.30;99.90;;;;;;5052404;28;20029;-75
2021/06/27 11:43:49;;;;;;;2.70;2.50;;;19.50;99.90;;;;;;5052741;28;20040;-75
2021/06/27 11:46:46;;;;;;;3.03;2.40;;;19.40;99.90;;;;;;5052815;28;20033;-75
2021/06/27 11:49:25;;;;;;;2.97;2.75;;;19.70;99.90;;;;;;5053065;28;20477;-75
2021/06/27 11:51:52;;;;;;;3.10;2.72;;;19.70;99.90;;;;;;5052947;28;20016;-75
2021/06/27 11:54:21;;;;;;;3.30;2.30;;;19.90;99.90;;;;;;5052830;28;20416;-75
2021/06/27 11:57:08;;;;;;;3.45;2.40;;;19.60;99.90;;;;;;5052123;28;20385;-75
2021/06/27 11:59:39;;;;;;;2.80;2.50;;;20.00;99.90;;;;;;5052576;28;20090;-75
2021/06/27 12:02:20;;;;;;;3.30;2.22;;;19.60;99.90;;;;;;5052617;28;20021;-75
2021/06/27 12:04:53;;;;;;;2.50;2.30;;;20.20;99.90;;;;;;5052502;28;20060;-75
2021/06/27 12:07:44;;;;;;;3.00;2.75;;;20.60;99.90;;;;;;5052469;28;20025;-76
2021/06/27 12:10:13;;;;;;;6.80;2.47;;;20.70;99.90;;;;;;5052112;28;20029;-75
2021/06/27 12:12:42;;;;;;;3.35;3.05;;;21.00;99.90;;;;;;5052489;28;20049;-75
2021/06/27 12:15:26;;;;;;;3.40;2.70;;;20.80;99.90;;;;;;5052604;28;20451;-75
2021/06/27 12:17:59;;;;;;;5.82;2.58;;;20.50;99.90;;;;;;5052482;28;20028;-75
2021/06/27 12:20:28;;;;;;;4.68;2.92;;;20.30;99.90;;;;;;5050921;28;20488;-76
2021/06/27 12:23:05;;;;;;;2.60;2.40;;;20.50;99.90;;;;;;5052392;28;20063;-75
2021/06/27 12:25:39;;;;;;;5.07;3.65;;;20.60;99.90;;;;;;5051778;28;20025;-75
2021/06/27 12:28:16;;;;;;;2.65;2.45;;;20.40;99.90;;;;;;5052488;28;20032;-76
2021/06/27 12:30:56;;;;;;;3.58;2.80;;;20.10;99.90;;;;;;5052156;28;20064;-75
2021/06/27 12:33:25;;;;;;;;;;;19.90;99.90;;;;;;5052633;28;20025;-75
2021/06/27 12:36:05;;;;;;;4.10;2.85;;;19.90;99.90;;;;;;5052110;28;19909;-75
2021/06/27 12:38:32;;;;;;;3.03;2.80;;;20.20;99.90;;;;;;5050591;28;20048;-75
2021/06/27 12:41:02;;;;;;;3.35;2.78;;;20.70;99.90;;;;;;5052223;28;20079;-76
2021/06/27 12:43:37;;;;;;;3.60;3.15;;;21.00;99.90;;;;;;5052257;28;20024;-75
2021/06/27 12:46:24;;;;;;;3.78;3.08;;;20.60;99.90;;;;;;5052049;28;20074;-75
2021/06/27 12:48:59;;;;;;;2.92;2.63;;;21.00;99.90;;;;;;5050722;28;20404;-76
2021/06/27 12:51:30;;;;;;;2.80;2.60;;;22.10;99.90;;;;;;5052117;28;20059;-75
2021/06/27 12:54:07;;;;;;;4.28;2.97;;;22.40;99.90;;;;;;5055111;28;20104;-75